createdAt,value
2018-07-22T00:03:51.517Z,18
2018-07-22T00:08:53.961Z,17.9
2018-07-22T00:13:56.583Z,17.9
2018-07-22T00:18:58.872Z,17.9
2018-07-22T00:24:01.384Z,17.9
2018-07-22T00:29:03.804Z,17.8
2018-07-22T00:34:06.402Z,17.8
2018-07-22T00:39:08.633Z,17.7
2018-07-22T00:44:11.121Z,17.7
2018-07-22T00:49:13.579Z,17.6
2018-07-22T00:54:16.067Z,17.5
2018-07-22T00:59:18.465Z,17.5
2018-07-22T01:04:21.092Z,17.5
2018-07-22T01:09:23.334Z,17.6
2018-07-22T01:14:25.754Z,17.6
2018-07-22T01:19:28.288Z,17.5
2018-07-22T01:24:30.671Z,17.5
2018-07-22T01:29:33.105Z,17.4
2018-07-22T01:34:35.534Z,17.5
2018-07-22T01:39:38.044Z,17.4
2018-07-22T01:44:40.435Z,17.4
2018-07-22T01:49:42.926Z,17.5
2018-07-22T01:54:45.386Z,17.4
2018-07-22T01:59:47.769Z,17.4
2018-07-22T02:04:50.227Z,17.4
2018-07-22T02:09:52.667Z,17.4
2018-07-22T02:14:55.386Z,17.4
2018-07-22T02:19:57.603Z,17.4
2018-07-22T02:25:00.084Z,17.4
2018-07-22T02:30:02.504Z,17.4
2018-07-22T02:35:04.891Z,17.3
2018-07-22T02:40:07.469Z,17.4
2018-07-22T02:45:09.806Z,17.3
2018-07-22T02:50:12.249Z,17.3
2018-07-22T02:55:14.709Z,17.3
2018-07-22T03:00:17.238Z,17.2
2018-07-22T03:05:19.555Z,17.2
2018-07-22T03:10:22.083Z,17.2
2018-07-22T03:15:24.480Z,17.2
2018-07-22T03:20:26.941Z,17.2
2018-07-22T03:25:29.372Z,17.2
2018-07-22T03:30:31.804Z,17.2
2018-07-22T03:35:34.240Z,17.2
2018-07-22T03:40:36.706Z,17.2
2018-07-22T03:45:39.180Z,17.1
2018-07-22T03:50:41.634Z,17.2
2018-07-22T03:55:44.049Z,17.1
2018-07-22T04:00:46.523Z,17.2
2018-07-22T04:05:49.127Z,17.2
2018-07-22T04:10:51.440Z,17.2
2018-07-22T04:15:53.938Z,17.3
2018-07-22T04:20:56.639Z,17.3
2018-07-22T04:25:58.735Z,17.4
2018-07-22T04:31:01.364Z,17.5
2018-07-22T04:36:03.715Z,17.6
2018-07-22T04:41:06.275Z,17.7
2018-07-22T04:46:08.574Z,17.8
2018-07-22T04:51:11.000Z,17.8
2018-07-22T04:56:13.404Z,17.9
2018-07-22T05:01:15.843Z,18.1
2018-07-22T05:06:18.395Z,18.2
2018-07-22T05:11:20.722Z,18.3
2018-07-22T05:16:23.316Z,18.5
2018-07-22T05:21:25.686Z,18.5
2018-07-22T05:26:28.237Z,18.6
2018-07-22T05:31:30.616Z,18.7
2018-07-22T05:36:33.084Z,18.9
2018-07-22T05:41:36.068Z,19
2018-07-22T05:46:38.060Z,19
2018-07-22T05:51:40.336Z,19
2018-07-22T05:56:42.746Z,19.2
2018-07-22T06:01:45.220Z,19.3
2018-07-22T06:06:47.615Z,19.5
2018-07-22T06:11:50.161Z,19.7
2018-07-22T06:16:52.588Z,19.9
2018-07-22T06:21:54.986Z,20.1
2018-07-22T06:26:57.379Z,20.1
2018-07-22T06:32:00.118Z,20.3
2018-07-22T06:37:02.293Z,20.5
2018-07-22T06:42:04.747Z,20.7
2018-07-22T06:47:07.232Z,21
2018-07-22T06:52:09.678Z,21.7
2018-07-22T06:57:12.060Z,22.4
2018-07-22T07:02:14.643Z,23
2018-07-22T07:07:16.982Z,23.1
2018-07-22T07:12:19.444Z,23
2018-07-22T07:17:21.887Z,23
2018-07-22T07:22:24.573Z,23.1
2018-07-22T07:27:26.799Z,22.9
2018-07-22T07:32:29.575Z,22.7
2018-07-22T07:37:31.928Z,22.7
2018-07-22T07:42:34.073Z,23.3
2018-07-22T07:47:36.534Z,24.3
2018-07-22T07:52:38.991Z,26.1
2018-07-22T07:57:41.445Z,27.9
2018-07-22T08:02:43.966Z,28.4
2018-07-22T08:07:46.327Z,29.6
2018-07-22T08:12:48.772Z,30.2
2018-07-22T08:17:51.213Z,30.9
2018-07-22T08:22:53.690Z,30.9
2018-07-22T08:27:56.140Z,30.8
2018-07-22T08:32:58.553Z,29.1
2018-07-22T08:38:01.048Z,28.3
2018-07-22T08:43:03.447Z,28.6
2018-07-22T08:48:05.891Z,28.7
2018-07-22T08:53:08.368Z,28.7
2018-07-22T08:58:10.996Z,28.5
2018-07-22T09:03:13.318Z,28.5
2018-07-22T09:08:15.706Z,28.8
2018-07-22T09:13:18.306Z,28.1
2018-07-22T09:18:20.675Z,28.3
2018-07-22T09:23:23.061Z,27.8
2018-07-22T09:28:25.540Z,28.2
2018-07-22T09:33:27.925Z,27.5
2018-07-22T09:38:30.682Z,27
2018-07-22T09:43:32.889Z,26.5
2018-07-22T09:48:35.249Z,27.2
2018-07-22T09:53:37.796Z,27.3
2018-07-22T09:58:40.385Z,27.2
2018-07-22T10:03:42.604Z,27
2018-07-22T10:08:45.133Z,27.1
2018-07-22T10:13:47.560Z,26.8
2018-07-22T10:18:49.966Z,27.1
2018-07-22T10:23:52.485Z,26.7
2018-07-22T10:28:54.825Z,26.6
2018-07-22T10:33:57.358Z,26.5
2018-07-22T10:38:59.814Z,26.6
2018-07-22T10:44:02.212Z,26.6
2018-07-22T10:49:04.641Z,26.2
2018-07-22T10:54:07.117Z,26
2018-07-22T10:59:09.608Z,25.7
2018-07-22T11:04:11.961Z,26
2018-07-22T11:14:17.032Z,25.5
2018-07-22T11:19:19.476Z,24.4
2018-07-22T11:24:21.834Z,23.9
2018-07-22T11:29:24.232Z,23.8
2018-07-22T11:34:27.176Z,24.3
2018-07-22T11:39:29.411Z,24.8
2018-07-22T11:44:31.667Z,24.6
2018-07-22T11:49:34.038Z,24.2
2018-07-22T11:54:36.499Z,23.8
2018-07-22T11:59:38.941Z,23.7
2018-07-22T12:04:41.422Z,23.9
2018-07-22T12:09:43.872Z,24.5
2018-07-22T12:14:46.512Z,25
2018-07-22T12:19:48.740Z,25
2018-07-22T12:24:51.195Z,24.8
2018-07-22T12:29:53.891Z,24.5
2018-07-22T12:34:56.457Z,24.2
2018-07-22T12:39:58.622Z,24.1
2018-07-22T12:45:01.322Z,24.2
2018-07-22T12:50:03.581Z,24.7
2018-07-22T12:55:05.936Z,24.9
2018-07-22T13:00:13.391Z,25.1
2018-07-22T13:05:11.442Z,25.2
2018-07-22T13:10:13.357Z,25.3
2018-07-22T13:15:15.687Z,25.7
2018-07-22T13:20:18.218Z,25.7
2018-07-22T13:25:20.641Z,25.4
2018-07-22T13:30:23.306Z,25.3
2018-07-22T13:35:25.679Z,25.2
2018-07-22T13:40:28.308Z,25.1
2018-07-22T13:45:30.811Z,25.5
2018-07-22T13:50:32.906Z,25.5
2018-07-22T13:55:35.314Z,25.9
2018-07-22T14:00:37.931Z,25.7
2018-07-22T14:05:40.253Z,25.5
2018-07-22T14:15:45.269Z,25.6
2018-07-22T14:20:47.502Z,25.6
2018-07-22T14:25:50.046Z,25.8
2018-07-22T14:30:52.398Z,25.8
2018-07-22T14:35:54.869Z,25.9
2018-07-22T14:40:57.324Z,26
2018-07-22T14:45:59.824Z,25.7
2018-07-22T14:51:02.259Z,25.3
2018-07-22T14:56:04.654Z,25.3
2018-07-22T15:01:07.141Z,25.5
2018-07-22T15:06:09.556Z,25.5
2018-07-22T15:11:11.962Z,25.4
2018-07-22T15:16:14.409Z,25.5
2018-07-22T15:21:17.129Z,25.6
2018-07-22T15:26:19.434Z,25.5
2018-07-22T15:31:21.767Z,25.3
2018-07-22T15:36:24.226Z,25.4
2018-07-22T15:41:26.703Z,25.7
2018-07-22T15:46:29.102Z,25.5
2018-07-22T15:51:31.552Z,25.2
2018-07-22T15:56:33.982Z,25.2
2018-07-22T16:01:36.498Z,25.2
2018-07-22T16:06:38.882Z,25
2018-07-22T16:11:41.417Z,24.9
2018-07-22T16:16:43.991Z,24.8
2018-07-22T16:21:46.289Z,24.8
2018-07-22T16:26:48.757Z,24.7
2018-07-22T16:31:51.145Z,24.6
2018-07-22T16:36:53.851Z,24.8
2018-07-22T16:41:56.034Z,24.9
2018-07-22T16:46:58.503Z,24.7
2018-07-22T16:52:00.930Z,24.7
2018-07-22T16:57:03.483Z,24.6
2018-07-22T17:02:05.841Z,24.2
2018-07-22T17:07:08.273Z,23.6
2018-07-22T17:12:10.787Z,23.2
2018-07-22T17:17:13.263Z,23.1
2018-07-22T17:22:15.817Z,23
2018-07-22T17:27:18.292Z,22.8
2018-07-22T17:32:20.564Z,22.7
2018-07-22T17:37:22.956Z,22.4
2018-07-22T17:42:25.541Z,22.2
2018-07-22T17:47:27.892Z,22.1
2018-07-22T17:52:30.291Z,21.9
2018-07-22T17:57:32.899Z,21.9
2018-07-22T18:02:35.474Z,21.8
2018-07-22T18:07:37.957Z,21.7
2018-07-22T18:12:40.274Z,21.6
2018-07-22T18:17:42.538Z,21.5
2018-07-22T18:22:45.007Z,21.4
2018-07-22T18:27:47.442Z,21.3
2018-07-22T18:32:49.967Z,21.2
2018-07-22T18:37:52.401Z,21
2018-07-22T18:42:54.771Z,20.9
2018-07-22T18:47:57.249Z,20.8
2018-07-22T18:52:59.697Z,20.8
2018-07-22T18:58:02.231Z,20.7
2018-07-22T19:03:04.538Z,20.7
2018-07-22T19:08:07.027Z,20.6
2018-07-22T19:13:09.489Z,20.5
2018-07-22T19:18:12.039Z,20.4
2018-07-22T19:23:14.480Z,20.3
2018-07-22T19:28:17.139Z,20.2
2018-07-22T19:33:19.304Z,20
2018-07-22T19:38:21.701Z,19.8
2018-07-22T19:43:24.112Z,19.7
2018-07-22T19:48:26.558Z,19.7
2018-07-22T19:53:28.997Z,19.6
2018-07-22T19:58:31.786Z,19.5
2018-07-22T20:23:44.069Z,19.5
2018-07-22T20:28:46.242Z,19.6
2018-07-22T20:33:48.560Z,19.7
2018-07-22T20:38:51.077Z,19.7
2018-07-22T20:43:53.510Z,19.6
2018-07-22T20:48:55.996Z,19.6
2018-07-22T20:53:58.353Z,19.6
2018-07-22T20:59:00.820Z,19.6
2018-07-22T21:04:03.653Z,19.6
2018-07-22T21:09:05.675Z,19.5
2018-07-22T21:14:08.217Z,19.5
2018-07-22T21:19:10.597Z,19.4
2018-07-22T21:24:13.041Z,19.4
2018-07-22T21:29:15.646Z,19.4
2018-07-22T21:34:18.177Z,19.4
2018-07-22T21:39:20.389Z,19.3
2018-07-22T21:44:22.871Z,19.3
2018-07-22T21:49:25.372Z,19.2
2018-07-22T21:54:27.768Z,19.1
2018-07-22T21:59:30.196Z,18.9
2018-07-22T22:04:32.632Z,18.8
2018-07-22T22:09:35.048Z,18.7
2018-07-22T22:14:37.497Z,18.6
2018-07-22T22:19:39.935Z,18.6
2018-07-22T22:24:42.613Z,18.6
2018-07-22T22:29:44.957Z,18.6
2018-07-22T22:34:47.362Z,18.5
2018-07-22T22:39:49.722Z,18.4
2018-07-22T22:44:52.392Z,18.2
2018-07-22T22:49:54.799Z,18.1
2018-07-22T22:54:57.093Z,18
2018-07-22T22:59:59.639Z,18
2018-07-22T23:05:02.088Z,17.9
2018-07-22T23:10:05.492Z,17.9
2018-07-22T23:15:06.916Z,17.9
2018-07-22T23:20:09.320Z,17.8
2018-07-22T23:25:11.731Z,17.8
2018-07-22T23:30:14.172Z,17.8
2018-07-22T23:35:16.623Z,17.7
2018-07-22T23:40:19.068Z,17.7
2018-07-22T23:45:21.511Z,17.7
2018-07-22T23:50:23.994Z,17.6
2018-07-22T23:55:26.424Z,17.6
